createdAt,value
2022-09-01T00:00:02.638Z,99147.88
2022-09-01T00:02:30.571Z,99147.97
2022-09-01T00:04:58.494Z,99147.34
2022-09-01T00:07:30.822Z,99136.28
2022-09-01T00:09:59.597Z,99150.59
2022-09-01T00:12:27.741Z,99153.44
2022-09-01T00:14:54.623Z,99146.34
2022-09-01T00:17:21.899Z,99150.19
2022-09-01T00:19:49.382Z,99127.00
2022-09-01T00:22:16.570Z,99157.19
2022-09-01T00:24:43.426Z,99153.84
2022-09-01T00:27:10.284Z,99143.38
2022-09-01T00:29:37.097Z,99135.25
2022-09-01T00:32:04.860Z,99145.06
2022-09-01T00:34:31.830Z,99152.72
2022-09-01T00:36:58.770Z,99140.94
2022-09-01T00:39:25.793Z,99147.19
2022-09-01T00:41:52.791Z,99122.19
2022-09-01T00:44:29.609Z,99139.84
2022-09-01T00:46:58.439Z,99141.13
2022-09-01T00:49:37.058Z,99141.22
2022-09-01T00:52:32.525Z,99143.00
2022-09-01T00:55:08.825Z,99138.84
2022-09-01T00:57:35.864Z,99140.94
2022-09-01T01:00:19.005Z,99133.16
2022-09-01T01:02:46.439Z,99130.88
2022-09-01T01:05:15.344Z,99112.50
2022-09-01T01:07:47.497Z,99114.16
2022-09-01T01:10:17.704Z,99136.75
2022-09-01T01:12:45.216Z,99110.13
2022-09-01T01:15:14.239Z,99098.94
2022-09-01T01:17:41.366Z,99135.09
2022-09-01T01:20:28.716Z,99129.88
2022-09-01T01:23:23.631Z,99103.22
2022-09-01T01:25:56.442Z,99141.91
2022-09-01T01:28:30.978Z,99117.53
2022-09-01T01:31:06.179Z,99139.06
2022-09-01T01:33:42.685Z,99142.81
2022-09-01T01:36:16.004Z,99134.56
2022-09-01T01:38:47.745Z,99136.56
2022-09-01T01:41:17.627Z,99128.72
2022-09-01T01:43:44.418Z,99138.66
2022-09-01T01:46:14.368Z,99116.19
2022-09-01T01:48:43.046Z,99147.66
2022-09-01T01:51:12.116Z,99143.88
2022-09-01T01:53:39.506Z,99126.22
2022-09-01T01:56:08.972Z,99139.69
2022-09-01T01:58:36.046Z,99140.66
2022-09-01T02:01:03.541Z,99133.75
2022-09-01T02:03:38.409Z,99159.97
2022-09-01T02:06:11.824Z,99160.41
2022-09-01T02:08:40.713Z,99166.06
2022-09-01T02:11:08.975Z,99151.44
2022-09-01T02:13:36.019Z,99139.41
2022-09-01T02:16:07.723Z,99144.72
2022-09-01T02:18:42.748Z,99157.59
2022-09-01T02:21:16.428Z,99145.13
2022-09-01T02:24:00.998Z,99131.84
2022-09-01T02:26:42.913Z,99142.41
2022-09-01T02:29:18.988Z,99150.78
2022-09-01T02:31:49.919Z,99146.63
2022-09-01T02:34:17.993Z,99130.69
2022-09-01T02:36:48.732Z,99137.09
2022-09-01T02:39:23.534Z,99137.91
2022-09-01T02:41:51.360Z,99134.59
2022-09-01T02:44:19.939Z,99134.47
2022-09-01T02:46:47.633Z,99106.53
2022-09-01T02:49:19.836Z,99132.59
2022-09-01T02:51:53.876Z,99136.13
2022-09-01T02:54:25.587Z,99128.63
2022-09-01T02:56:54.714Z,99110.22
2022-09-01T02:59:26.334Z,99129.25
2022-09-01T03:01:54.332Z,99143.88
2022-09-01T03:04:22.592Z,99125.13
2022-09-01T03:06:54.888Z,99108.72
2022-09-01T03:09:22.706Z,99135.69
2022-09-01T03:11:53.481Z,99135.19
2022-09-01T03:14:22.653Z,99132.34
2022-09-01T03:16:49.867Z,99123.56
2022-09-01T03:19:19.062Z,99131.19
2022-09-01T03:21:46.585Z,99134.06
2022-09-01T03:24:17.808Z,99137.31
2022-09-01T03:26:50.021Z,99099.75
2022-09-01T03:29:18.594Z,99117.94
2022-09-01T03:31:45.813Z,99136.56
2022-09-01T03:34:12.812Z,99139.81
2022-09-01T03:36:39.945Z,99129.56
2022-09-01T03:39:14.638Z,99140.56
2022-09-01T03:41:43.514Z,99140.03
2022-09-01T03:44:12.044Z,99136.53
2022-09-01T03:46:40.419Z,99140.47
2022-09-01T03:49:08.015Z,99139.25
2022-09-01T03:51:35.360Z,99135.78
2022-09-01T03:54:02.251Z,99125.72
2022-09-01T03:56:29.962Z,99116.84
2022-09-01T03:58:59.928Z,99115.38
2022-09-01T04:01:29.614Z,99139.00
2022-09-01T04:03:57.138Z,99137.53
2022-09-01T04:06:24.681Z,99140.88
2022-09-01T04:09:02.631Z,99133.50
2022-09-01T04:11:31.000Z,99123.53
2022-09-01T04:13:58.402Z,99121.03
2022-09-01T04:16:51.281Z,99130.09
2022-09-01T04:19:25.771Z,99136.38
2022-09-01T04:21:56.170Z,99140.88
2022-09-01T04:24:25.060Z,99118.38
2022-09-01T04:26:52.707Z,99133.44
2022-09-01T04:29:27.536Z,99115.03
2022-09-01T04:32:03.657Z,99137.34
2022-09-01T04:34:41.662Z,99117.00
2022-09-01T04:37:21.117Z,99129.16
2022-09-01T04:39:56.571Z,99133.56
2022-09-01T04:42:27.365Z,99116.38
2022-09-01T04:44:57.296Z,99121.53
2022-09-01T04:47:35.167Z,99134.09
2022-09-01T04:50:13.624Z,99140.69
2022-09-01T04:52:42.327Z,99128.97
2022-09-01T04:55:17.340Z,99135.56
2022-09-01T04:57:49.407Z,99134.19
2022-09-01T05:00:22.600Z,99141.41
2022-09-01T05:03:04.712Z,99142.03
2022-09-01T05:05:44.538Z,99107.66
2022-09-01T05:08:23.567Z,99139.22
2022-09-01T05:10:56.792Z,99139.66
2022-09-01T05:13:24.502Z,99118.34
2022-09-01T05:16:06.033Z,99126.06
2022-09-01T05:18:33.962Z,99138.31
2022-09-01T05:21:09.892Z,99133.78
2022-09-01T05:23:40.367Z,99128.59
2022-09-01T05:26:18.119Z,99134.84
2022-09-01T05:28:47.616Z,99138.09
2022-09-01T05:31:14.868Z,99131.28
2022-09-01T05:33:45.861Z,99131.94
2022-09-01T05:36:15.762Z,99134.69
2022-09-01T05:38:42.646Z,99120.44
2022-09-01T05:41:15.061Z,99107.38
2022-09-01T05:43:48.963Z,99092.66
2022-09-01T05:46:20.656Z,99128.84
2022-09-01T05:48:50.537Z,99125.69
2022-09-01T05:51:43.191Z,99132.16
2022-09-01T05:54:12.016Z,99119.88
2022-09-01T05:56:43.580Z,99136.03
2022-09-01T05:59:28.597Z,99145.56
2022-09-01T06:01:56.182Z,99129.47
2022-09-01T06:04:25.513Z,99139.28
2022-09-01T06:07:07.067Z,99134.69
2022-09-01T06:09:45.423Z,99136.13
2022-09-01T06:12:18.433Z,99137.59
2022-09-01T06:14:48.297Z,99137.88
2022-09-01T06:17:16.764Z,99125.44
2022-09-01T06:19:44.427Z,99134.63
2022-09-01T06:22:11.391Z,99106.81
2022-09-01T06:24:43.892Z,99124.16
2022-09-01T06:27:12.546Z,99125.06
2022-09-01T06:29:40.841Z,99128.94
2022-09-01T06:32:12.474Z,99122.47
2022-09-01T06:34:44.621Z,99130.50
2022-09-01T06:37:13.314Z,99109.06
2022-09-01T06:39:41.558Z,99115.97
2022-09-01T06:42:11.205Z,99118.47
2022-09-01T06:44:41.986Z,99130.56
2022-09-01T06:47:09.142Z,99121.75
2022-09-01T06:49:36.608Z,99123.94
2022-09-01T06:52:04.882Z,99111.50
2022-09-01T06:54:35.007Z,99124.44
2022-09-01T06:59:53.907Z,99110.44
2022-09-01T07:02:24.447Z,99133.00
2022-09-01T07:04:54.154Z,99127.53
2022-09-01T07:10:25.384Z,99134.84
2022-09-01T07:13:06.132Z,99129.09
2022-09-01T07:18:27.395Z,99142.13
2022-09-01T07:21:38.893Z,99124.97
2022-09-01T07:24:05.873Z,99114.09
2022-09-01T07:26:31.417Z,99141.84
2022-09-01T07:29:01.921Z,99143.91
2022-09-01T07:31:50.543Z,99141.66
2022-09-01T07:38:03.396Z,99144.59
2022-09-01T07:39:56.282Z,99147.59
2022-09-01T07:45:28.801Z,99137.59
2022-09-01T07:47:57.829Z,99117.66
2022-09-01T07:53:29.711Z,99163.47
2022-09-01T07:55:57.864Z,99162.28
2022-09-01T07:58:29.898Z,99165.16
2022-09-01T08:01:01.212Z,99149.28
2022-09-01T08:03:28.673Z,99168.88
2022-09-01T08:06:00.847Z,99170.75
2022-09-01T08:08:29.209Z,99151.91
2022-09-01T08:11:04.370Z,99155.63
2022-09-01T08:13:37.300Z,99157.66
2022-09-01T08:16:16.319Z,99176.25
2022-09-01T08:18:49.567Z,99171.13
2022-09-01T08:21:21.921Z,99175.78
2022-09-01T08:23:52.746Z,99165.28
2022-09-01T08:26:23.188Z,99177.00
2022-09-01T08:28:58.203Z,99171.50
2022-09-01T08:31:30.749Z,99167.19
2022-09-01T08:33:59.023Z,99166.72
2022-09-01T08:36:26.242Z,99163.28
2022-09-01T08:38:53.826Z,99164.34
2022-09-01T08:41:52.997Z,99184.41
2022-09-01T08:44:45.998Z,99166.47
2022-09-01T08:47:17.612Z,99166.47
2022-09-01T08:49:54.698Z,99160.97
2022-09-01T08:52:43.815Z,99165.13
2022-09-01T08:55:26.016Z,99185.28
2022-09-01T08:57:59.119Z,99178.81
2022-09-01T09:00:33.355Z,99183.13
2022-09-01T09:03:43.328Z,99183.69
2022-09-01T09:06:34.996Z,99172.88
2022-09-01T09:09:08.252Z,99185.56
2022-09-01T09:12:25.222Z,99181.63
2022-09-01T09:15:00.596Z,99175.19
2022-09-01T09:17:35.806Z,99183.03
2022-09-01T09:20:05.725Z,99186.59
2022-09-01T09:22:33.945Z,99183.03
2022-09-01T09:25:19.414Z,99178.38
2022-09-01T09:27:50.347Z,99183.97
2022-09-01T09:30:31.299Z,99168.69
2022-09-01T09:33:46.708Z,99189.22
2022-09-01T09:35:47.724Z,99164.00
2022-09-01T09:38:28.596Z,99179.34
2022-09-01T09:41:20.312Z,99177.78
2022-09-01T09:44:09.173Z,99186.03
2022-09-01T09:46:43.697Z,99180.81
2022-09-01T09:49:10.681Z,99178.50
2022-09-01T09:51:44.860Z,99171.13
2022-09-01T09:54:29.838Z,99177.56
2022-09-01T09:57:08.883Z,99172.47
2022-09-01T09:59:57.717Z,99177.03
2022-09-01T10:02:41.833Z,99166.31
2022-09-01T10:05:45.515Z,99163.09
2022-09-01T10:08:39.779Z,99169.50
2022-09-01T10:11:08.114Z,99169.94
2022-09-01T10:13:36.698Z,99160.91
2022-09-01T10:16:22.302Z,99169.81
2022-09-01T10:18:51.830Z,99147.09
2022-09-01T10:21:29.607Z,99161.28
2022-09-01T10:24:17.131Z,99146.06
2022-09-01T10:26:47.970Z,99163.28
2022-09-01T10:29:22.377Z,99155.09
2022-09-01T10:31:49.297Z,99161.41
2022-09-01T10:34:19.634Z,99152.31
2022-09-01T10:36:54.936Z,99134.59
2022-09-01T10:39:27.711Z,99143.88
2022-09-01T10:42:07.431Z,99139.63
2022-09-01T10:44:57.556Z,99124.38
2022-09-01T10:47:37.843Z,99147.44
2022-09-01T10:50:29.503Z,99141.06
2022-09-01T10:53:05.853Z,99148.97
2022-09-01T10:55:47.866Z,99154.66
2022-09-01T11:01:48.836Z,99150.50
2022-09-01T11:04:46.549Z,99151.31
2022-09-01T11:07:38.887Z,99144.09
2022-09-01T11:10:32.511Z,99147.44
2022-09-01T11:13:36.386Z,99138.84
2022-09-01T11:16:48.021Z,99142.47
2022-09-01T11:19:44.575Z,99121.34
2022-09-01T11:22:28.651Z,99121.38
2022-09-01T11:25:39.282Z,99136.91
2022-09-01T11:28:37.852Z,99131.75
2022-09-01T11:31:08.463Z,99125.25
2022-09-01T11:33:50.734Z,99127.00
2022-09-01T11:36:49.954Z,99125.22
2022-09-01T11:39:20.942Z,99120.47
2022-09-01T11:42:04.471Z,99112.56
2022-09-01T11:44:53.434Z,99101.59
2022-09-01T11:47:33.190Z,99112.97
2022-09-01T11:50:36.095Z,99088.53
2022-09-01T11:53:13.682Z,99096.31
2022-09-01T11:55:51.781Z,99102.31
2022-09-01T11:58:27.817Z,99103.50
2022-09-01T12:00:57.927Z,99101.63
2022-09-01T12:03:30.199Z,99101.50
2022-09-01T12:06:02.786Z,99098.41
2022-09-01T12:08:34.750Z,99102.28
2022-09-01T12:11:09.837Z,99095.31
2022-09-01T12:13:38.370Z,99090.25
2022-09-01T12:16:18.931Z,99105.50
2022-09-01T12:18:51.374Z,99075.72
2022-09-01T12:21:28.098Z,99084.97
2022-09-01T12:24:22.636Z,99092.97
2022-09-01T12:26:54.602Z,99086.94
2022-09-01T12:29:23.179Z,99087.25
2022-09-01T12:31:52.766Z,99079.63
2022-09-01T12:34:40.853Z,99086.88
2022-09-01T12:37:10.847Z,99079.25
2022-09-01T12:39:42.533Z,99093.22
2022-09-01T12:42:21.449Z,99092.09
2022-09-01T12:45:03.332Z,99089.38
2022-09-01T12:47:33.445Z,99085.66
2022-09-01T12:50:08.504Z,99070.13
2022-09-01T12:52:45.184Z,99060.00
2022-09-01T12:58:12.730Z,99081.91
2022-09-01T13:01:05.674Z,99073.06
2022-09-01T13:03:34.813Z,99070.34
2022-09-01T13:06:04.552Z,99086.56
2022-09-01T13:08:36.030Z,99071.19
2022-09-01T13:11:11.531Z,99087.25
2022-09-01T13:13:38.838Z,99083.50
2022-09-01T13:16:12.678Z,99066.19
2022-09-01T13:21:30.748Z,99079.94
2022-09-01T13:23:57.955Z,99064.22
2022-09-01T13:26:26.232Z,99066.41
2022-09-01T13:28:53.920Z,99044.91
2022-09-01T13:31:29.538Z,99051.88
2022-09-01T13:34:22.670Z,99067.03
2022-09-01T13:36:49.341Z,99053.88
2022-09-01T13:39:20.241Z,99064.00
2022-09-01T13:41:48.838Z,99058.00
2022-09-01T13:44:17.364Z,99055.53
2022-09-01T13:47:28.260Z,99063.63
2022-09-01T13:52:19.720Z,99042.47
2022-09-01T13:54:47.594Z,99041.41
2022-09-01T13:57:16.322Z,99057.66
2022-09-01T13:59:43.700Z,99053.19
2022-09-01T14:02:10.983Z,99055.16
2022-09-01T14:04:37.989Z,99057.34
2022-09-01T14:07:05.082Z,99033.41
2022-09-01T14:09:32.258Z,99039.81
2022-09-01T14:11:59.391Z,99048.28
2022-09-01T14:14:26.629Z,99053.56
2022-09-01T14:16:54.000Z,99042.03
2022-09-01T14:19:20.918Z,99042.31
2022-09-01T14:21:49.609Z,99020.72
2022-09-01T14:24:19.801Z,99024.97
2022-09-01T14:26:47.796Z,99019.00
2022-09-01T14:29:14.825Z,99018.75
2022-09-01T14:31:42.221Z,99033.84
2022-09-01T14:34:09.819Z,99028.88
2022-09-01T14:36:36.666Z,99004.19
2022-09-01T14:39:03.658Z,98999.75
2022-09-01T14:41:30.680Z,98983.53
2022-09-01T14:44:03.247Z,99019.25
2022-09-01T14:46:33.777Z,99025.50
2022-09-01T14:49:02.443Z,99000.59
2022-09-01T14:54:17.828Z,99010.69
2022-09-01T14:57:28.375Z,99013.00
2022-09-01T14:59:32.925Z,98995.03
2022-09-01T15:01:59.871Z,98957.31
2022-09-01T15:04:27.807Z,99003.16
2022-09-01T15:06:55.064Z,98989.06
2022-09-01T15:09:22.729Z,99001.38
2022-09-01T15:11:49.625Z,98982.00
2022-09-01T15:14:16.634Z,98994.78
2022-09-01T15:16:43.506Z,98988.59
2022-09-01T15:19:13.085Z,98990.38
2022-09-01T15:21:43.376Z,98982.69
2022-09-01T15:24:11.155Z,98969.88
2022-09-01T15:26:40.729Z,98976.81
2022-09-01T15:29:09.893Z,99001.22
2022-09-01T15:31:36.764Z,98991.94
2022-09-01T15:34:05.411Z,98967.75
2022-09-01T15:36:41.963Z,98990.31
2022-09-01T15:39:10.569Z,98987.84
2022-09-01T15:41:38.437Z,98989.00
2022-09-01T15:44:07.430Z,98984.22
2022-09-01T15:46:38.856Z,98985.94
2022-09-01T15:49:09.863Z,98985.91
2022-09-01T15:51:39.993Z,98987.53
2022-09-01T15:54:17.044Z,98975.91
2022-09-01T15:56:44.987Z,98991.38
2022-09-01T15:59:12.281Z,98984.44
2022-09-01T16:01:43.934Z,98974.06
2022-09-01T16:04:19.055Z,98975.09
2022-09-01T16:06:49.423Z,98969.69
2022-09-01T16:09:18.405Z,98988.09
2022-09-01T16:11:45.392Z,98959.75
2022-09-01T16:14:17.643Z,98971.34
2022-09-01T16:17:18.407Z,98968.41
2022-09-01T16:20:00.972Z,98980.66
2022-09-01T16:22:34.900Z,98957.00
2022-09-01T16:25:17.844Z,98969.34
2022-09-01T16:27:46.298Z,98963.66
2022-09-01T16:30:19.791Z,98968.03
2022-09-01T16:32:49.534Z,98950.63
2022-09-01T16:35:18.984Z,98969.16
2022-09-01T16:38:14.030Z,98955.69
2022-09-01T16:41:04.243Z,98968.56
2022-09-01T16:43:52.385Z,98947.81
2022-09-01T16:47:13.227Z,98964.72
2022-09-01T16:50:37.476Z,98950.09
2022-09-01T16:53:28.376Z,98964.00
2022-09-01T16:56:10.706Z,98949.22
2022-09-01T16:58:43.244Z,98969.59
2022-09-01T17:01:13.207Z,98958.38
2022-09-01T17:04:13.513Z,98949.69
2022-09-01T17:07:15.942Z,98954.06
2022-09-01T17:09:54.169Z,98961.78
2022-09-01T17:12:47.862Z,98953.81
2022-09-01T17:15:39.414Z,98952.44
2022-09-01T17:18:32.770Z,98942.44
2022-09-01T17:21:09.861Z,98923.59
2022-09-01T17:23:54.681Z,98956.03
2022-09-01T17:26:27.181Z,98960.78
2022-09-01T17:29:28.509Z,98960.59
2022-09-01T17:32:50.899Z,98958.53
2022-09-01T17:35:46.264Z,98957.22
2022-09-01T17:38:13.941Z,98966.81
2022-09-01T17:41:16.083Z,98952.31
2022-09-01T17:44:12.585Z,98968.59
2022-09-01T17:47:27.589Z,98979.59
2022-09-01T17:50:03.965Z,98976.72
2022-09-01T17:53:10.271Z,98969.59
2022-09-01T17:56:05.229Z,98981.50
2022-09-01T17:59:12.049Z,98974.19
2022-09-01T18:02:05.200Z,98976.84
2022-09-01T18:05:13.004Z,98981.03
2022-09-01T18:08:00.878Z,98971.75
2022-09-01T18:10:32.202Z,98991.50
2022-09-01T18:13:04.697Z,98986.91
2022-09-01T18:15:54.357Z,98993.34
2022-09-01T18:18:40.625Z,99004.03
2022-09-01T18:21:21.438Z,99002.28
2022-09-01T18:23:54.446Z,98986.66
2022-09-01T18:26:35.278Z,99010.50
2022-09-01T18:29:05.086Z,99014.25
2022-09-01T18:31:53.355Z,99014.13
2022-09-01T18:35:00.237Z,99024.78
2022-09-01T18:37:51.624Z,99022.31
2022-09-01T18:40:35.742Z,99028.09
2022-09-01T18:43:19.023Z,99001.91
2022-09-01T18:45:56.645Z,99012.44
2022-09-01T18:48:47.465Z,99020.34
2022-09-01T18:51:40.637Z,99018.69
2022-09-01T18:54:46.350Z,99019.38
2022-09-01T18:57:21.078Z,99005.91
2022-09-01T19:00:17.019Z,99006.72
2022-09-01T19:03:13.969Z,99029.88
2022-09-01T19:05:50.997Z,99021.91
2022-09-01T19:08:45.369Z,99023.53
2022-09-01T19:11:17.886Z,99022.97
2022-09-01T19:14:19.089Z,99024.66
2022-09-01T19:17:16.627Z,99021.31
2022-09-01T19:19:51.519Z,99013.41
2022-09-01T19:22:33.615Z,99034.09
2022-09-01T19:25:25.931Z,99033.66
2022-09-01T19:28:04.951Z,99035.28
2022-09-01T19:30:35.380Z,99017.84
2022-09-01T19:33:05.696Z,99008.63
2022-09-01T19:35:34.756Z,99031.00
2022-09-01T19:38:06.671Z,99037.09
2022-09-01T19:40:37.800Z,99021.53
2022-09-01T19:43:15.687Z,99020.03
2022-09-01T19:46:35.290Z,99033.25
2022-09-01T19:49:44.194Z,99023.31
2022-09-01T19:52:35.717Z,99025.63
2022-09-01T19:55:21.088Z,99030.22
2022-09-01T19:58:00.239Z,99019.56
2022-09-01T20:00:52.518Z,99021.13
2022-09-01T20:03:41.534Z,99026.38
2022-09-01T20:06:35.431Z,99034.13
2022-09-01T20:09:32.071Z,99036.75
2022-09-01T20:12:31.982Z,99028.09
2022-09-01T20:15:21.818Z,99021.81
2022-09-01T20:17:55.581Z,99008.72
2022-09-01T20:20:26.997Z,99025.59
2022-09-01T20:23:24.621Z,99009.44
2022-09-01T20:26:03.902Z,99030.53
2022-09-01T20:29:18.693Z,99030.16
2022-09-01T20:31:54.261Z,99022.84
2022-09-01T20:34:42.776Z,99029.78
2022-09-01T20:37:33.023Z,99026.75
2022-09-01T20:40:17.591Z,99013.66
2022-09-01T20:43:02.462Z,99032.72
2022-09-01T20:45:31.907Z,99025.47
2022-09-01T20:48:07.578Z,99030.47
2022-09-01T20:50:43.414Z,99036.31
2022-09-01T20:53:47.734Z,99036.19
2022-09-01T20:56:27.844Z,99011.31
2022-09-01T20:59:23.210Z,99025.22
2022-09-01T21:02:18.702Z,98952.00
2022-09-01T21:05:25.027Z,99023.97
2022-09-01T21:08:18.190Z,99031.72
2022-09-01T21:11:12.681Z,98980.97
2022-09-01T21:14:31.462Z,99027.69
2022-09-01T21:17:28.146Z,99017.66
2022-09-01T21:20:26.194Z,99016.25
2022-09-01T21:22:55.520Z,99009.47
2022-09-01T21:25:22.919Z,99013.16
2022-09-01T21:28:03.109Z,99006.03
2022-09-01T21:30:33.970Z,99022.09
2022-09-01T21:33:01.518Z,99015.06
2022-09-01T21:35:28.677Z,99023.16
2022-09-01T21:37:55.522Z,98983.75
2022-09-01T21:40:25.316Z,99016.16
2022-09-01T21:43:01.131Z,98972.28
2022-09-01T21:45:28.241Z,98995.88
2022-09-01T21:47:55.599Z,99004.84
2022-09-01T21:50:24.899Z,99018.19
2022-09-01T21:52:51.992Z,98988.25
2022-09-01T21:55:22.901Z,99017.13
2022-09-01T21:57:52.194Z,99003.66
2022-09-01T22:00:26.433Z,98996.22
2022-09-01T22:02:54.419Z,99007.91
2022-09-01T22:05:26.180Z,98982.16
2022-09-01T22:07:56.529Z,99000.03
2022-09-01T22:10:26.493Z,99019.94
2022-09-01T22:12:55.248Z,98998.13
2022-09-01T22:15:24.986Z,99012.06
2022-09-01T22:17:53.761Z,99000.50
2022-09-01T22:20:23.338Z,99005.16
2022-09-01T22:22:51.006Z,98988.44
2022-09-01T22:25:23.710Z,99004.56
2022-09-01T22:27:51.636Z,99011.69
2022-09-01T22:30:19.235Z,99009.78
2022-09-01T22:32:47.812Z,99000.94
2022-09-01T22:35:18.333Z,98987.13
2022-09-01T22:37:45.951Z,99000.63
2022-09-01T22:40:15.500Z,98992.00
2022-09-01T22:42:43.072Z,99001.53
2022-09-01T22:45:11.767Z,99009.53
2022-09-01T22:47:38.790Z,99011.66
2022-09-01T22:50:08.852Z,98993.81
2022-09-01T22:52:36.747Z,98995.47
2022-09-01T22:55:04.736Z,98988.53
2022-09-01T22:57:32.893Z,99017.59
2022-09-01T23:00:00.806Z,98977.88
2022-09-01T23:02:28.392Z,98990.66
2022-09-01T23:04:55.328Z,98996.50
2022-09-01T23:07:22.202Z,98998.00
2022-09-01T23:09:49.126Z,98970.53
2022-09-01T23:12:17.128Z,98991.31
2022-09-01T23:14:45.047Z,98970.53
2022-09-01T23:17:12.946Z,99002.84
2022-09-01T23:19:41.797Z,99006.53
2022-09-01T23:22:09.693Z,98993.47
2022-09-01T23:24:36.540Z,98997.56
2022-09-01T23:27:04.532Z,98958.03
2022-09-01T23:29:32.341Z,98987.63
2022-09-01T23:31:59.207Z,98977.25
2022-09-01T23:34:27.171Z,99004.56
2022-09-01T23:36:54.048Z,99002.59
2022-09-01T23:39:20.881Z,98976.03
2022-09-01T23:41:47.705Z,98985.72
2022-09-01T23:44:14.525Z,98996.31
2022-09-01T23:46:44.562Z,98988.31
2022-09-01T23:49:13.335Z,98997.09
2022-09-01T23:51:41.042Z,98998.78
2022-09-01T23:54:08.088Z,98989.38
2022-09-01T23:56:35.306Z,98981.53
2022-09-01T23:59:02.253Z,98969.56
